sensor_id;sensor_type;location;lat;lon;timestamp;temperature;humidity
52609;DHT22;38503;48.544;12.142;2023-02-02T00:01:33;4.50;99.90
52609;DHT22;38503;48.544;12.142;2023-02-02T00:04:00;4.50;99.90
52609;DHT22;38503;48.544;12.142;2023-02-02T00:06:28;4.50;99.90
52609;DHT22;38503;48.544;12.142;2023-02-02T00:08:57;4.50;99.90
52609;DHT22;38503;48.544;12.142;2023-02-02T00:11:25;4.50;99.90
52609;DHT22;38503;48.544;12.142;2023-02-02T00:13:53;4.50;99.90
52609;DHT22;38503;48.544;12.142;2023-02-02T00:18:51;4.40;99.90
52609;DHT22;38503;48.544;12.142;2023-02-02T00:21:18;4.40;99.90
52609;DHT22;38503;48.544;12.142;2023-02-02T00:23:45;4.30;99.90
52609;DHT22;38503;48.544;12.142;2023-02-02T00:26:12;4.40;99.90
52609;DHT22;38503;48.544;12.142;2023-02-02T00:28:39;4.30;99.90
52609;DHT22;38503;48.544;12.142;2023-02-02T00:31:06;4.30;99.90
52609;DHT22;38503;48.544;12.142;2023-02-02T00:33:32;4.30;99.90
52609;DHT22;38503;48.544;12.142;2023-02-02T00:35:59;4.30;99.90
52609;DHT22;38503;48.544;12.142;2023-02-02T00:38:26;4.30;99.90
52609;DHT22;38503;48.544;12.142;2023-02-02T00:40:53;4.30;99.90
52609;DHT22;38503;48.544;12.142;2023-02-02T00:43:19;4.30;99.90
52609;DHT22;38503;48.544;12.142;2023-02-02T00:45:47;4.30;99.90
52609;DHT22;38503;48.544;12.142;2023-02-02T00:48:14;4.40;99.90
52609;DHT22;38503;48.544;12.142;2023-02-02T00:50:41;4.30;99.90
52609;DHT22;38503;48.544;12.142;2023-02-02T00:53:08;4.30;99.90
52609;DHT22;38503;48.544;12.142;2023-02-02T00:55:42;4.40;99.90
52609;DHT22;38503;48.544;12.142;2023-02-02T00:58:09;4.40;99.90
52609;DHT22;38503;48.544;12.142;2023-02-02T01:00:36;4.40;99.90
52609;DHT22;38503;48.544;12.142;2023-02-02T01:03:03;4.50;99.90
52609;DHT22;38503;48.544;12.142;2023-02-02T01:05:32;4.40;99.90
52609;DHT22;38503;48.544;12.142;2023-02-02T01:08:00;4.40;99.90
52609;DHT22;38503;48.544;12.142;2023-02-02T01:10:27;4.40;99.90
52609;DHT22;38503;48.544;12.142;2023-02-02T01:12:53;4.50;99.90
52609;DHT22;38503;48.544;12.142;2023-02-02T01:15:20;4.40;99.90
52609;DHT22;38503;48.544;12.142;2023-02-02T01:17:47;4.40;99.90
52609;DHT22;38503;48.544;12.142;2023-02-02T01:20:16;4.40;99.90
52609;DHT22;38503;48.544;12.142;2023-02-02T01:22:44;4.40;99.90
52609;DHT22;38503;48.544;12.142;2023-02-02T01:25:11;4.40;99.90
52609;DHT22;38503;48.544;12.142;2023-02-02T01:27:38;4.40;99.90
52609;DHT22;38503;48.544;12.142;2023-02-02T01:30:05;4.30;99.90
52609;DHT22;38503;48.544;12.142;2023-02-02T01:32:32;4.40;99.90
52609;DHT22;38503;48.544;12.142;2023-02-02T01:34:59;4.30;99.90
52609;DHT22;38503;48.544;12.142;2023-02-02T01:37:26;4.30;99.90
52609;DHT22;38503;48.544;12.142;2023-02-02T01:39:53;4.30;99.90
52609;DHT22;38503;48.544;12.142;2023-02-02T01:42:21;4.30;99.90
52609;DHT22;38503;48.544;12.142;2023-02-02T01:47:22;4.20;99.90
52609;DHT22;38503;48.544;12.142;2023-02-02T01:49:51;4.20;99.90
52609;DHT22;38503;48.544;12.142;2023-02-02T01:52:21;4.10;99.90
52609;DHT22;38503;48.544;12.142;2023-02-02T01:54:52;4.00;99.90
52609;DHT22;38503;48.544;12.142;2023-02-02T01:57:27;3.90;99.90
52609;DHT22;38503;48.544;12.142;2023-02-02T01:59:58;3.90;99.90
52609;DHT22;38503;48.544;12.142;2023-02-02T02:02:26;3.90;99.90
52609;DHT22;38503;48.544;12.142;2023-02-02T02:04:55;3.80;99.90
52609;DHT22;38503;48.544;12.142;2023-02-02T02:07:22;3.80;99.90
52609;DHT22;38503;48.544;12.142;2023-02-02T02:09:49;3.80;99.90
52609;DHT22;38503;48.544;12.142;2023-02-02T02:12:16;3.80;99.90
52609;DHT22;38503;48.544;12.142;2023-02-02T02:14:46;3.80;99.90
52609;DHT22;38503;48.544;12.142;2023-02-02T02:35:36;3.60;99.90
52609;DHT22;38503;48.544;12.142;2023-02-02T02:38:09;3.60;99.90
52609;DHT22;38503;48.544;12.142;2023-02-02T02:40:41;3.60;99.90
52609;DHT22;38503;48.544;12.142;2023-02-02T02:43:22;3.60;99.90
52609;DHT22;38503;48.544;12.142;2023-02-02T02:45:50;3.60;99.90
52609;DHT22;38503;48.544;12.142;2023-02-02T02:48:16;3.70;99.90
52609;DHT22;38503;48.544;12.142;2023-02-02T02:50:43;3.70;99.90
52609;DHT22;38503;48.544;12.142;2023-02-02T02:53:16;3.70;99.90
52609;DHT22;38503;48.544;12.142;2023-02-02T02:58:41;3.70;99.90
52609;DHT22;38503;48.544;12.142;2023-02-02T03:01:27;3.70;99.90
52609;DHT22;38503;48.544;12.142;2023-02-02T03:04:17;3.70;99.90
52609;DHT22;38503;48.544;12.142;2023-02-02T03:09:22;3.70;99.90
52609;DHT22;38503;48.544;12.142;2023-02-02T03:11:50;3.70;99.90
52609;DHT22;38503;48.544;12.142;2023-02-02T03:14:17;3.70;99.90
52609;DHT22;38503;48.544;12.142;2023-02-02T03:16:44;3.70;99.90
52609;DHT22;38503;48.544;12.142;2023-02-02T03:19:11;3.70;99.90
52609;DHT22;38503;48.544;12.142;2023-02-02T03:21:38;3.70;99.90
52609;DHT22;38503;48.544;12.142;2023-02-02T03:24:05;3.60;99.90
52609;DHT22;38503;48.544;12.142;2023-02-02T03:26:32;3.60;99.90
52609;DHT22;38503;48.544;12.142;2023-02-02T03:28:59;3.60;99.90
52609;DHT22;38503;48.544;12.142;2023-02-02T03:31:27;3.70;99.90
52609;DHT22;38503;48.544;12.142;2023-02-02T03:33:54;3.60;99.90
52609;DHT22;38503;48.544;12.142;2023-02-02T03:36:22;3.60;99.90
52609;DHT22;38503;48.544;12.142;2023-02-02T03:38:48;3.50;99.90
52609;DHT22;38503;48.544;12.142;2023-02-02T03:41:15;3.50;99.90
52609;DHT22;38503;48.544;12.142;2023-02-02T03:43:42;3.50;99.90
52609;DHT22;38503;48.544;12.142;2023-02-02T03:46:11;3.40;99.90
52609;DHT22;38503;48.544;12.142;2023-02-02T03:48:38;3.50;99.90
52609;DHT22;38503;48.544;12.142;2023-02-02T03:51:08;3.50;99.90
52609;DHT22;38503;48.544;12.142;2023-02-02T03:53:35;3.50;99.90
52609;DHT22;38503;48.544;12.142;2023-02-02T03:56:02;3.50;99.90
52609;DHT22;38503;48.544;12.142;2023-02-02T03:58:29;3.60;99.90
52609;DHT22;38503;48.544;12.142;2023-02-02T04:01:05;3.60;99.90
52609;DHT22;38503;48.544;12.142;2023-02-02T04:03:33;3.60;99.90
52609;DHT22;38503;48.544;12.142;2023-02-02T04:06:00;3.60;99.90
52609;DHT22;38503;48.544;12.142;2023-02-02T04:08:27;3.60;99.90
52609;DHT22;38503;48.544;12.142;2023-02-02T04:10:54;3.60;99.90
52609;DHT22;38503;48.544;12.142;2023-02-02T04:13:20;3.60;99.90
52609;DHT22;38503;48.544;12.142;2023-02-02T04:15:47;3.60;99.90
52609;DHT22;38503;48.544;12.142;2023-02-02T04:18:21;3.60;99.90
52609;DHT22;38503;48.544;12.142;2023-02-02T04:20:48;3.70;99.90
52609;DHT22;38503;48.544;12.142;2023-02-02T04:23:14;3.60;99.90
52609;DHT22;38503;48.544;12.142;2023-02-02T04:25:48;3.60;99.90
52609;DHT22;38503;48.544;12.142;2023-02-02T04:28:15;3.60;99.90
52609;DHT22;38503;48.544;12.142;2023-02-02T04:30:42;3.60;99.90
52609;DHT22;38503;48.544;12.142;2023-02-02T04:33:08;3.60;99.90
52609;DHT22;38503;48.544;12.142;2023-02-02T04:35:35;3.50;99.90
52609;DHT22;38503;48.544;12.142;2023-02-02T04:38:02;3.50;99.90
52609;DHT22;38503;48.544;12.142;2023-02-02T04:40:28;3.50;99.90
52609;DHT22;38503;48.544;12.142;2023-02-02T04:42:56;3.50;99.90
52609;DHT22;38503;48.544;12.142;2023-02-02T04:45:23;3.40;99.90
52609;DHT22;38503;48.544;12.142;2023-02-02T04:47:51;3.40;99.90
52609;DHT22;38503;48.544;12.142;2023-02-02T04:50:18;3.40;99.90
52609;DHT22;38503;48.544;12.142;2023-02-02T04:52:44;3.40;99.90
52609;DHT22;38503;48.544;12.142;2023-02-02T04:55:11;3.30;99.90
52609;DHT22;38503;48.544;12.142;2023-02-02T04:57:38;3.30;99.90
52609;DHT22;38503;48.544;12.142;2023-02-02T05:00:05;3.30;99.90
52609;DHT22;38503;48.544;12.142;2023-02-02T05:02:35;3.30;99.90
52609;DHT22;38503;48.544;12.142;2023-02-02T05:05:03;3.30;99.90
52609;DHT22;38503;48.544;12.142;2023-02-02T05:07:30;3.30;99.90
52609;DHT22;38503;48.544;12.142;2023-02-02T05:09:57;3.30;99.90
52609;DHT22;38503;48.544;12.142;2023-02-02T05:12:24;3.30;99.90
52609;DHT22;38503;48.544;12.142;2023-02-02T05:14:51;3.30;99.90
52609;DHT22;38503;48.544;12.142;2023-02-02T05:17:18;3.30;99.90
52609;DHT22;38503;48.544;12.142;2023-02-02T05:19:45;3.30;99.90
52609;DHT22;38503;48.544;12.142;2023-02-02T05:22:11;3.30;99.90
52609;DHT22;38503;48.544;12.142;2023-02-02T05:24:38;3.30;99.90
52609;DHT22;38503;48.544;12.142;2023-02-02T05:27:05;3.30;99.90
52609;DHT22;38503;48.544;12.142;2023-02-02T05:29:32;3.30;99.90
52609;DHT22;38503;48.544;12.142;2023-02-02T05:31:58;3.30;99.90
52609;DHT22;38503;48.544;12.142;2023-02-02T05:34:25;3.30;99.90
52609;DHT22;38503;48.544;12.142;2023-02-02T05:36:52;3.30;99.90
52609;DHT22;38503;48.544;12.142;2023-02-02T05:39:19;3.30;99.90
52609;DHT22;38503;48.544;12.142;2023-02-02T05:41:46;3.30;99.90
52609;DHT22;38503;48.544;12.142;2023-02-02T05:44:13;3.30;99.90
52609;DHT22;38503;48.544;12.142;2023-02-02T05:46:40;3.30;99.90
52609;DHT22;38503;48.544;12.142;2023-02-02T05:49:11;3.30;99.90
52609;DHT22;38503;48.544;12.142;2023-02-02T05:51:49;3.30;99.90
52609;DHT22;38503;48.544;12.142;2023-02-02T05:54:17;3.30;99.90
52609;DHT22;38503;48.544;12.142;2023-02-02T05:56:47;3.30;99.90
52609;DHT22;38503;48.544;12.142;2023-02-02T05:59:15;3.20;99.90
52609;DHT22;38503;48.544;12.142;2023-02-02T06:01:46;3.30;99.90
52609;DHT22;38503;48.544;12.142;2023-02-02T06:04:14;3.20;99.90
52609;DHT22;38503;48.544;12.142;2023-02-02T06:06:41;3.20;99.90
52609;DHT22;38503;48.544;12.142;2023-02-02T06:09:08;3.20;99.90
52609;DHT22;38503;48.544;12.142;2023-02-02T06:11:35;3.20;99.90
52609;DHT22;38503;48.544;12.142;2023-02-02T06:14:02;3.20;99.90
52609;DHT22;38503;48.544;12.142;2023-02-02T06:16:29;3.20;99.90
52609;DHT22;38503;48.544;12.142;2023-02-02T06:18:58;3.20;99.90
52609;DHT22;38503;48.544;12.142;2023-02-02T06:21:25;3.30;99.90
52609;DHT22;38503;48.544;12.142;2023-02-02T06:23:52;3.30;99.90
52609;DHT22;38503;48.544;12.142;2023-02-02T06:26:19;3.40;99.90
52609;DHT22;38503;48.544;12.142;2023-02-02T06:28:51;3.30;99.90
52609;DHT22;38503;48.544;12.142;2023-02-02T06:31:19;3.40;99.90
52609;DHT22;38503;48.544;12.142;2023-02-02T06:33:47;3.40;99.90
52609;DHT22;38503;48.544;12.142;2023-02-02T06:36:14;3.40;99.90
52609;DHT22;38503;48.544;12.142;2023-02-02T06:38:41;3.40;99.90
52609;DHT22;38503;48.544;12.142;2023-02-02T06:41:07;3.50;99.90
52609;DHT22;38503;48.544;12.142;2023-02-02T06:43:34;3.50;99.90
52609;DHT22;38503;48.544;12.142;2023-02-02T06:46:01;3.50;99.90
52609;DHT22;38503;48.544;12.142;2023-02-02T06:48:28;3.60;99.90
52609;DHT22;38503;48.544;12.142;2023-02-02T06:50:58;3.60;99.90
52609;DHT22;38503;48.544;12.142;2023-02-02T06:53:25;3.60;99.90
52609;DHT22;38503;48.544;12.142;2023-02-02T06:55:54;3.60;99.90
52609;DHT22;38503;48.544;12.142;2023-02-02T06:58:21;3.60;99.90
52609;DHT22;38503;48.544;12.142;2023-02-02T07:00:48;3.70;99.90
52609;DHT22;38503;48.544;12.142;2023-02-02T07:03:16;3.60;99.90
52609;DHT22;38503;48.544;12.142;2023-02-02T07:05:43;3.60;99.90
52609;DHT22;38503;48.544;12.142;2023-02-02T07:08:09;3.80;99.90
52609;DHT22;38503;48.544;12.142;2023-02-02T07:10:37;3.70;99.90
52609;DHT22;38503;48.544;12.142;2023-02-02T07:13:26;3.80;99.90
52609;DHT22;38503;48.544;12.142;2023-02-02T07:15:53;3.80;99.90
52609;DHT22;38503;48.544;12.142;2023-02-02T07:18:22;3.80;99.90
52609;DHT22;38503;48.544;12.142;2023-02-02T07:20:49;3.80;99.90
52609;DHT22;38503;48.544;12.142;2023-02-02T07:23:16;3.80;99.90
52609;DHT22;38503;48.544;12.142;2023-02-02T07:25:43;3.90;99.90
52609;DHT22;38503;48.544;12.142;2023-02-02T07:28:10;3.90;99.90
52609;DHT22;38503;48.544;12.142;2023-02-02T07:30:36;3.90;99.90
52609;DHT22;38503;48.544;12.142;2023-02-02T07:33:03;4.00;99.90
52609;DHT22;38503;48.544;12.142;2023-02-02T07:35:30;4.00;99.90
52609;DHT22;38503;48.544;12.142;2023-02-02T07:37:57;4.00;99.90
52609;DHT22;38503;48.544;12.142;2023-02-02T07:40:23;4.00;99.90
52609;DHT22;38503;48.544;12.142;2023-02-02T07:42:50;4.10;99.90
52609;DHT22;38503;48.544;12.142;2023-02-02T07:45:17;4.10;99.90
52609;DHT22;38503;48.544;12.142;2023-02-02T07:48:00;4.10;99.90
52609;DHT22;38503;48.544;12.142;2023-02-02T07:50:28;4.10;99.90
52609;DHT22;38503;48.544;12.142;2023-02-02T07:52:57;4.10;99.90
52609;DHT22;38503;48.544;12.142;2023-02-02T07:55:24;4.10;99.90
52609;DHT22;38503;48.544;12.142;2023-02-02T07:57:51;4.10;99.90
52609;DHT22;38503;48.544;12.142;2023-02-02T08:00:21;4.20;99.90
52609;DHT22;38503;48.544;12.142;2023-02-02T08:02:48;4.20;99.90
52609;DHT22;38503;48.544;12.142;2023-02-02T08:05:15;4.20;99.90
52609;DHT22;38503;48.544;12.142;2023-02-02T08:07:42;4.20;99.90
52609;DHT22;38503;48.544;12.142;2023-02-02T08:10:10;4.20;99.90
52609;DHT22;38503;48.544;12.142;2023-02-02T08:12:37;4.20;99.90
52609;DHT22;38503;48.544;12.142;2023-02-02T08:15:05;4.20;99.90
52609;DHT22;38503;48.544;12.142;2023-02-02T08:17:33;4.20;99.90
52609;DHT22;38503;48.544;12.142;2023-02-02T08:20:00;4.30;99.90
52609;DHT22;38503;48.544;12.142;2023-02-02T08:22:27;4.30;99.90
52609;DHT22;38503;48.544;12.142;2023-02-02T08:24:53;4.30;99.90
52609;DHT22;38503;48.544;12.142;2023-02-02T08:27:20;4.40;99.90
52609;DHT22;38503;48.544;12.142;2023-02-02T08:29:47;4.30;99.90
52609;DHT22;38503;48.544;12.142;2023-02-02T08:32:14;4.40;99.90
52609;DHT22;38503;48.544;12.142;2023-02-02T08:34:40;4.40;99.90
52609;DHT22;38503;48.544;12.142;2023-02-02T08:37:07;4.40;99.90
52609;DHT22;38503;48.544;12.142;2023-02-02T08:39:34;4.30;99.90
52609;DHT22;38503;48.544;12.142;2023-02-02T08:42:01;4.40;99.90
52609;DHT22;38503;48.544;12.142;2023-02-02T08:44:28;4.30;99.90
52609;DHT22;38503;48.544;12.142;2023-02-02T08:47:15;4.30;99.90
52609;DHT22;38503;48.544;12.142;2023-02-02T08:49:42;4.30;99.90
52609;DHT22;38503;48.544;12.142;2023-02-02T08:52:10;4.30;99.90
52609;DHT22;38503;48.544;12.142;2023-02-02T08:54:37;4.30;99.90
52609;DHT22;38503;48.544;12.142;2023-02-02T08:57:04;4.40;99.90
52609;DHT22;38503;48.544;12.142;2023-02-02T08:59:31;4.20;99.90
52609;DHT22;38503;48.544;12.142;2023-02-02T09:01:57;4.20;99.90
52609;DHT22;38503;48.544;12.142;2023-02-02T09:04:24;4.20;99.90
52609;DHT22;38503;48.544;12.142;2023-02-02T09:06:51;4.10;99.90
52609;DHT22;38503;48.544;12.142;2023-02-02T09:09:18;4.10;99.90
52609;DHT22;38503;48.544;12.142;2023-02-02T09:11:45;4.10;99.90
52609;DHT22;38503;48.544;12.142;2023-02-02T09:14:15;4.10;99.90
52609;DHT22;38503;48.544;12.142;2023-02-02T09:16:42;4.10;99.90
52609;DHT22;38503;48.544;12.142;2023-02-02T09:19:10;4.10;99.90
52609;DHT22;38503;48.544;12.142;2023-02-02T09:21:37;4.10;99.90
52609;DHT22;38503;48.544;12.142;2023-02-02T09:24:08;3.60;99.90
52609;DHT22;38503;48.544;12.142;2023-02-02T09:26:36;3.20;99.90
52609;DHT22;38503;48.544;12.142;2023-02-02T09:29:05;3.10;99.90
52609;DHT22;38503;48.544;12.142;2023-02-02T09:31:35;3.10;99.90
52609;DHT22;38503;48.544;12.142;2023-02-02T09:34:08;2.70;99.90
52609;DHT22;38503;48.544;12.142;2023-02-02T09:36:36;2.50;99.90
52609;DHT22;38503;48.544;12.142;2023-02-02T09:39:04;2.50;99.90
52609;DHT22;38503;48.544;12.142;2023-02-02T09:50:12;2.30;99.90
52609;DHT22;38503;48.544;12.142;2023-02-02T09:52:43;2.40;99.90
52609;DHT22;38503;48.544;12.142;2023-02-02T09:55:22;2.50;99.90
52609;DHT22;38503;48.544;12.142;2023-02-02T09:57:57;2.30;99.90
52609;DHT22;38503;48.544;12.142;2023-02-02T10:00:38;2.30;99.90
52609;DHT22;38503;48.544;12.142;2023-02-02T10:03:18;2.40;99.90
52609;DHT22;38503;48.544;12.142;2023-02-02T10:08:43;2.50;99.90
52609;DHT22;38503;48.544;12.142;2023-02-02T10:11:43;2.50;99.90
52609;DHT22;38503;48.544;12.142;2023-02-02T10:14:39;2.60;99.90
52609;DHT22;38503;48.544;12.142;2023-02-02T10:20:01;2.80;99.90
52609;DHT22;38503;48.544;12.142;2023-02-02T10:22:29;2.90;99.90
52609;DHT22;38503;48.544;12.142;2023-02-02T10:24:58;3.40;99.90
52609;DHT22;38503;48.544;12.142;2023-02-02T10:27:37;3.70;99.90
52609;DHT22;38503;48.544;12.142;2023-02-02T10:30:15;3.80;99.90
52609;DHT22;38503;48.544;12.142;2023-02-02T10:32:46;3.90;99.90
52609;DHT22;38503;48.544;12.142;2023-02-02T10:43:41;4.00;99.90
52609;DHT22;38503;48.544;12.142;2023-02-02T10:49:29;4.10;99.90
52609;DHT22;38503;48.544;12.142;2023-02-02T11:00:45;4.20;99.90
52609;DHT22;38503;48.544;12.142;2023-02-02T11:03:14;4.30;99.90
52609;DHT22;38503;48.544;12.142;2023-02-02T11:05:41;4.20;99.90
52609;DHT22;38503;48.544;12.142;2023-02-02T11:14:00;4.30;99.90
52609;DHT22;38503;48.544;12.142;2023-02-02T11:16:29;4.40;99.90
52609;DHT22;38503;48.544;12.142;2023-02-02T11:21:50;4.50;99.90
52609;DHT22;38503;48.544;12.142;2023-02-02T11:27:00;4.40;99.90
52609;DHT22;38503;48.544;12.142;2023-02-02T11:29:33;4.50;99.90
52609;DHT22;38503;48.544;12.142;2023-02-02T11:37:38;4.60;99.90
52609;DHT22;38503;48.544;12.142;2023-02-02T11:42:50;4.70;99.90
52609;DHT22;38503;48.544;12.142;2023-02-02T11:45:23;4.80;99.90
52609;DHT22;38503;48.544;12.142;2023-02-02T11:47:52;4.70;99.90
52609;DHT22;38503;48.544;12.142;2023-02-02T11:50:25;4.70;99.90
52609;DHT22;38503;48.544;12.142;2023-02-02T11:52:53;4.70;99.90
52609;DHT22;38503;48.544;12.142;2023-02-02T11:55:26;4.70;99.90
52609;DHT22;38503;48.544;12.142;2023-02-02T12:00:47;4.70;99.90
52609;DHT22;38503;48.544;12.142;2023-02-02T12:03:36;4.70;99.90
52609;DHT22;38503;48.544;12.142;2023-02-02T12:06:21;4.70;99.90
52609;DHT22;38503;48.544;12.142;2023-02-02T12:08:49;4.60;99.90
52609;DHT22;38503;48.544;12.142;2023-02-02T12:11:41;4.70;99.90
52609;DHT22;38503;48.544;12.142;2023-02-02T12:14:33;4.60;99.90
52609;DHT22;38503;48.544;12.142;2023-02-02T12:17:14;4.70;99.90
52609;DHT22;38503;48.544;12.142;2023-02-02T12:28:43;4.60;99.90
52609;DHT22;38503;48.544;12.142;2023-02-02T13:02:03;4.60;99.90
52609;DHT22;38503;48.544;12.142;2023-02-02T13:04:44;4.60;99.90
52609;DHT22;38503;48.544;12.142;2023-02-02T13:10:10;4.60;99.90
52609;DHT22;38503;48.544;12.142;2023-02-02T13:12:51;4.70;99.90
52609;DHT22;38503;48.544;12.142;2023-02-02T13:15:27;4.70;99.90
52609;DHT22;38503;48.544;12.142;2023-02-02T13:17:57;4.70;99.90
52609;DHT22;38503;48.544;12.142;2023-02-02T13:20:43;4.70;99.90
52609;DHT22;38503;48.544;12.142;2023-02-02T13:25:49;4.80;99.90
52609;DHT22;38503;48.544;12.142;2023-02-02T13:31:03;4.80;99.90
52609;DHT22;38503;48.544;12.142;2023-02-02T13:33:34;4.80;99.90
52609;DHT22;38503;48.544;12.142;2023-02-02T13:36:16;4.80;99.90
52609;DHT22;38503;48.544;12.142;2023-02-02T13:38:43;4.80;99.90
52609;DHT22;38503;48.544;12.142;2023-02-02T13:41:11;4.90;99.90
52609;DHT22;38503;48.544;12.142;2023-02-02T13:43:46;4.80;99.90
52609;DHT22;38503;48.544;12.142;2023-02-02T13:51:43;4.80;99.90
52609;DHT22;38503;48.544;12.142;2023-02-02T14:00:00;4.80;99.90
52609;DHT22;38503;48.544;12.142;2023-02-02T14:02:38;4.80;99.90
52609;DHT22;38503;48.544;12.142;2023-02-02T14:05:07;4.80;99.90
52609;DHT22;38503;48.544;12.142;2023-02-02T14:07:44;4.80;99.90
52609;DHT22;38503;48.544;12.142;2023-02-02T14:13:23;4.90;99.90
52609;DHT22;38503;48.544;12.142;2023-02-02T14:19:03;4.90;99.90
52609;DHT22;38503;48.544;12.142;2023-02-02T14:27:00;4.90;99.90
52609;DHT22;38503;48.544;12.142;2023-02-02T14:34:45;4.90;99.90
52609;DHT22;38503;48.544;12.142;2023-02-02T14:48:02;4.90;99.90
52609;DHT22;38503;48.544;12.142;2023-02-02T14:53:16;4.80;99.90
52609;DHT22;38503;48.544;12.142;2023-02-02T14:55:55;4.80;99.90
52609;DHT22;38503;48.544;12.142;2023-02-02T15:06:26;4.70;99.90
52609;DHT22;38503;48.544;12.142;2023-02-02T15:17:05;4.70;99.90
52609;DHT22;38503;48.544;12.142;2023-02-02T15:19:38;4.70;99.90
52609;DHT22;38503;48.544;12.142;2023-02-02T15:24:45;4.70;99.90
52609;DHT22;38503;48.544;12.142;2023-02-02T15:27:17;4.70;99.90
52609;DHT22;38503;48.544;12.142;2023-02-02T15:29:48;4.70;99.90
52609;DHT22;38503;48.544;12.142;2023-02-02T15:32:21;4.70;99.90
52609;DHT22;38503;48.544;12.142;2023-02-02T15:34:52;4.70;99.90
52609;DHT22;38503;48.544;12.142;2023-02-02T15:37:25;4.70;99.90
52609;DHT22;38503;48.544;12.142;2023-02-02T15:39:58;4.60;99.90
52609;DHT22;38503;48.544;12.142;2023-02-02T15:42:31;4.60;99.90
52609;DHT22;38503;48.544;12.142;2023-02-02T15:50:52;4.70;99.90
52609;DHT22;38503;48.544;12.142;2023-02-02T15:53:30;4.70;99.90
52609;DHT22;38503;48.544;12.142;2023-02-02T15:55:57;4.70;99.90
52609;DHT22;38503;48.544;12.142;2023-02-02T16:01:01;4.60;99.90
52609;DHT22;38503;48.544;12.142;2023-02-02T16:04:18;4.60;99.90
52609;DHT22;38503;48.544;12.142;2023-02-02T16:06:19;4.60;99.90
52609;DHT22;38503;48.544;12.142;2023-02-02T16:08:48;4.60;99.90
52609;DHT22;38503;48.544;12.142;2023-02-02T16:11:17;4.70;99.90
52609;DHT22;38503;48.544;12.142;2023-02-02T16:14:03;4.60;99.90
52609;DHT22;38503;48.544;12.142;2023-02-02T16:16:34;4.60;99.90
52609;DHT22;38503;48.544;12.142;2023-02-02T16:19:12;4.50;99.90
52609;DHT22;38503;48.544;12.142;2023-02-02T16:24:46;4.50;99.90
52609;DHT22;38503;48.544;12.142;2023-02-02T16:27:19;4.50;99.90
52609;DHT22;38503;48.544;12.142;2023-02-02T16:29:48;4.50;99.90
52609;DHT22;38503;48.544;12.142;2023-02-02T16:32:29;4.50;99.90
52609;DHT22;38503;48.544;12.142;2023-02-02T16:34:56;4.50;99.90
52609;DHT22;38503;48.544;12.142;2023-02-02T16:37:27;4.50;99.90
52609;DHT22;38503;48.544;12.142;2023-02-02T16:39:56;4.50;99.90
52609;DHT22;38503;48.544;12.142;2023-02-02T16:42:40;4.50;99.90
52609;DHT22;38503;48.544;12.142;2023-02-02T16:45:34;4.50;99.90
52609;DHT22;38503;48.544;12.142;2023-02-02T16:54:12;4.60;99.90
52609;DHT22;38503;48.544;12.142;2023-02-02T16:56:47;4.60;99.90
52609;DHT22;38503;48.544;12.142;2023-02-02T16:59:37;4.70;99.90
52609;DHT22;38503;48.544;12.142;2023-02-02T17:02:23;4.60;99.90
52609;DHT22;38503;48.544;12.142;2023-02-02T17:05:02;4.70;99.90
52609;DHT22;38503;48.544;12.142;2023-02-02T17:07:31;4.60;99.90
52609;DHT22;38503;48.544;12.142;2023-02-02T17:10:19;4.70;99.90
52609;DHT22;38503;48.544;12.142;2023-02-02T17:12:47;4.60;99.90
52609;DHT22;38503;48.544;12.142;2023-02-02T17:17:45;4.60;99.90
52609;DHT22;38503;48.544;12.142;2023-02-02T17:20:16;4.70;99.90
52609;DHT22;38503;48.544;12.142;2023-02-02T17:23:04;4.60;99.90
52609;DHT22;38503;48.544;12.142;2023-02-02T17:25:40;4.60;99.90
52609;DHT22;38503;48.544;12.142;2023-02-02T17:28:15;4.60;99.90
52609;DHT22;38503;48.544;12.142;2023-02-02T17:30:43;4.60;99.90
52609;DHT22;38503;48.544;12.142;2023-02-02T17:33:15;4.50;99.90
52609;DHT22;38503;48.544;12.142;2023-02-02T17:35:43;4.20;99.90
52609;DHT22;38503;48.544;12.142;2023-02-02T17:38:22;3.80;99.90
52609;DHT22;38503;48.544;12.142;2023-02-02T17:40:50;3.60;99.90
52609;DHT22;38503;48.544;12.142;2023-02-02T17:43:17;3.30;99.90
52609;DHT22;38503;48.544;12.142;2023-02-02T17:45:44;3.10;99.90
52609;DHT22;38503;48.544;12.142;2023-02-02T17:48:12;2.90;99.90
52609;DHT22;38503;48.544;12.142;2023-02-02T17:50:40;2.60;99.90
52609;DHT22;38503;48.544;12.142;2023-02-02T17:53:12;2.50;99.90
52609;DHT22;38503;48.544;12.142;2023-02-02T17:55:41;2.40;99.90
52609;DHT22;38503;48.544;12.142;2023-02-02T17:58:09;2.30;99.90
52609;DHT22;38503;48.544;12.142;2023-02-02T18:00:38;2.30;99.90
52609;DHT22;38503;48.544;12.142;2023-02-02T18:03:11;2.20;99.90
52609;DHT22;38503;48.544;12.142;2023-02-02T18:05:38;2.10;99.90
52609;DHT22;38503;48.544;12.142;2023-02-02T18:08:10;2.00;99.90
52609;DHT22;38503;48.544;12.142;2023-02-02T18:10:38;2.10;99.90
52609;DHT22;38503;48.544;12.142;2023-02-02T18:13:05;1.90;99.90
52609;DHT22;38503;48.544;12.142;2023-02-02T18:15:32;1.90;99.90
52609;DHT22;38503;48.544;12.142;2023-02-02T18:18:01;1.80;99.90
52609;DHT22;38503;48.544;12.142;2023-02-02T18:20:28;1.70;99.90
52609;DHT22;38503;48.544;12.142;2023-02-02T18:22:56;1.70;99.90
52609;DHT22;38503;48.544;12.142;2023-02-02T18:25:23;1.60;99.90
52609;DHT22;38503;48.544;12.142;2023-02-02T18:27:51;1.60;99.90
52609;DHT22;38503;48.544;12.142;2023-02-02T18:30:20;1.60;99.90
52609;DHT22;38503;48.544;12.142;2023-02-02T18:32:47;1.60;99.90
52609;DHT22;38503;48.544;12.142;2023-02-02T18:35:15;1.60;99.90
52609;DHT22;38503;48.544;12.142;2023-02-02T18:37:42;1.80;99.90
52609;DHT22;38503;48.544;12.142;2023-02-02T18:40:09;1.70;99.90
52609;DHT22;38503;48.544;12.142;2023-02-02T18:42:36;1.70;99.90
52609;DHT22;38503;48.544;12.142;2023-02-02T18:45:04;1.70;99.90
52609;DHT22;38503;48.544;12.142;2023-02-02T18:47:31;1.70;99.90
52609;DHT22;38503;48.544;12.142;2023-02-02T18:49:58;1.60;99.90
52609;DHT22;38503;48.544;12.142;2023-02-02T18:52:25;1.60;99.90
52609;DHT22;38503;48.544;12.142;2023-02-02T18:54:52;1.70;99.90
52609;DHT22;38503;48.544;12.142;2023-02-02T18:57:19;1.70;99.90
52609;DHT22;38503;48.544;12.142;2023-02-02T18:59:45;1.60;99.90
52609;DHT22;38503;48.544;12.142;2023-02-02T19:02:14;1.60;99.90
52609;DHT22;38503;48.544;12.142;2023-02-02T19:04:41;1.60;99.90
52609;DHT22;38503;48.544;12.142;2023-02-02T19:07:31;1.70;99.90
52609;DHT22;38503;48.544;12.142;2023-02-02T19:10:17;1.70;99.90
52609;DHT22;38503;48.544;12.142;2023-02-02T19:12:57;1.80;99.90
52609;DHT22;38503;48.544;12.142;2023-02-02T19:15:26;1.70;99.90
52609;DHT22;38503;48.544;12.142;2023-02-02T19:17:54;1.70;99.90
52609;DHT22;38503;48.544;12.142;2023-02-02T19:20:25;1.70;99.90
52609;DHT22;38503;48.544;12.142;2023-02-02T19:23:05;1.70;99.90